East Union, Indiana
Current Conditions -  °F | °C
As of 10:15 AM on Thursday 18 Dec 2014 (Local Time) from KTYQ Reporting Station
Overcast Overcast  
Wind Chill: 26°   Ceiling: 1500
Heat Index: 26°   Visibility: 10mi
Dew Point: 19°   Wind: 3mph
Humidity: 76%   Direction: 260°W
Pressure: 30.3"   Gusts: NA
Location:  40.1832°N, 85.9359°W
Report Text: KTYQ 181515Z AUTO 26003KT 10SM OVC015 M03/M07 A3030 RMK AO2 T10351072
Loading
Personal Weather Stations






























Interactive Weather Map New forecast layout! Learn more

10-Day Weather Forecast

Advertisements
Track Severe Weather on mobile